CPA524 VHHH-RJAA
Flight info
| Callsign | CPA524 |
|---|---|
| Flight time | N/A |
| Altitude | 37000 |
| Route | DALOL V631 ENVAR M750 PILOX/N0472F390 M750 MUKEP Y891 AGIMO Y89 GUPER Y81 RUTAS |
| Aircraft | A333/H-SDE3GHIJ2J3J5M1RVWXY/LB2D1 |
Departure
| Time | 2026-05-05 16:39 |
|---|---|
| Airport | Hong Kong International Airport (VHHH) |
Arrival
| Time | N/A |
|---|---|
| Airport | Narita International Airport (RJAA) |
| Time | Latitude | Longitude | Altitude | Speed | Heading |
|---|---|---|---|---|---|
| 2026-05-05 16:14 | 22.31474 | 113.93068 | 41 ft | 0 kts | 161° |
| 2026-05-05 16:26 | 22.31503 | 113.93058 | 39 ft | 4 kts | 161° |
| 2026-05-05 16:27 | 22.31529 | 113.93048 | 38 ft | 4 kts | 161° |
| 2026-05-05 16:27 | 22.31549 | 113.93042 | 39 ft | 4 kts | 181° |
| 2026-05-05 16:27 | 22.31571 | 113.93050 | 38 ft | 4 kts | 236° |
| 2026-05-05 16:27 | 22.31581 | 113.93075 | 38 ft | 4 kts | 251° |
| 2026-05-05 16:28 | 22.31585 | 113.93087 | 36 ft | 3 kts | 251° |
| 2026-05-05 16:29 | 22.31585 | 113.93086 | 36 ft | 1 kts | 251° |
| 2026-05-05 16:29 | 22.31580 | 113.93071 | 38 ft | 4 kts | 251° |
| 2026-05-05 16:30 | 22.31562 | 113.93015 | 41 ft | 12 kts | 250° |
| 2026-05-05 16:30 | 22.31590 | 113.92926 | 41 ft | 16 kts | 330° |
| 2026-05-05 16:30 | 22.31702 | 113.92880 | 41 ft | 18 kts | 341° |
| 2026-05-05 16:30 | 22.31778 | 113.92824 | 41 ft | 12 kts | 290° |
| 2026-05-05 16:31 | 22.31762 | 113.92727 | 41 ft | 15 kts | 250° |
| 2026-05-05 16:31 | 22.31723 | 113.92608 | 41 ft | 18 kts | 251° |
| 2026-05-05 16:31 | 22.31678 | 113.92469 | 40 ft | 20 kts | 251° |
| 2026-05-05 16:31 | 22.31634 | 113.92326 | 40 ft | 20 kts | 250° |
| 2026-05-05 16:32 | 22.31586 | 113.92182 | 40 ft | 20 kts | 251° |
| 2026-05-05 16:32 | 22.31518 | 113.92069 | 40 ft | 16 kts | 183° |
| 2026-05-05 16:32 | 22.31410 | 113.92099 | 40 ft | 16 kts | 161° |
| 2026-05-05 16:32 | 22.31295 | 113.92144 | 41 ft | 19 kts | 155° |
| 2026-05-05 16:33 | 22.31167 | 113.92190 | 41 ft | 21 kts | 161° |
| 2026-05-05 16:33 | 22.31025 | 113.92244 | 41 ft | 22 kts | 160° |
| 2026-05-05 16:33 | 22.30881 | 113.92299 | 41 ft | 22 kts | 159° |
| 2026-05-05 16:33 | 22.30742 | 113.92350 | 41 ft | 19 kts | 161° |
| 2026-05-05 16:34 | 22.30633 | 113.92339 | 41 ft | 16 kts | 235° |
| 2026-05-05 16:34 | 22.30587 | 113.92217 | 41 ft | 20 kts | 250° |
| 2026-05-05 16:34 | 22.30539 | 113.92068 | 41 ft | 23 kts | 250° |
| 2026-05-05 16:34 | 22.30485 | 113.91903 | 41 ft | 23 kts | 251° |
| 2026-05-05 16:35 | 22.30431 | 113.91737 | 41 ft | 24 kts | 250° |
| 2026-05-05 16:35 | 22.30375 | 113.91569 | 40 ft | 24 kts | 250° |
| 2026-05-05 16:35 | 22.30322 | 113.91395 | 40 ft | 24 kts | 254° |
| 2026-05-05 16:35 | 22.30266 | 113.91226 | 40 ft | 24 kts | 250° |
| 2026-05-05 16:36 | 22.30212 | 113.91059 | 41 ft | 24 kts | 250° |
| 2026-05-05 16:36 | 22.30159 | 113.90890 | 41 ft | 24 kts | 250° |
| 2026-05-05 16:36 | 22.30104 | 113.90722 | 41 ft | 24 kts | 251° |
| 2026-05-05 16:36 | 22.30048 | 113.90552 | 40 ft | 24 kts | 250° |
| 2026-05-05 16:37 | 22.29993 | 113.90380 | 40 ft | 24 kts | 250° |
| 2026-05-05 16:37 | 22.29938 | 113.90208 | 40 ft | 24 kts | 251° |
| 2026-05-05 16:37 | 22.29882 | 113.90034 | 40 ft | 24 kts | 251° |
| 2026-05-05 16:37 | 22.29834 | 113.89893 | 40 ft | 17 kts | 251° |
| 2026-05-05 16:38 | 22.29783 | 113.89783 | 40 ft | 16 kts | 217° |
| 2026-05-05 16:38 | 22.29679 | 113.89791 | 41 ft | 15 kts | 163° |
| 2026-05-05 16:38 | 22.29648 | 113.89871 | 41 ft | 13 kts | 75° |
| 2026-05-05 16:38 | 22.29706 | 113.90058 | 40 ft | 50 kts | 71° |
| 2026-05-05 16:39 | 22.29883 | 113.90604 | 39 ft | 103 kts | 71° |
| 2026-05-05 16:39 | 22.30171 | 113.91496 | 42 ft | 148 kts | 70° |
| 2026-05-05 16:39 | 22.30539 | 113.92637 | 310 ft | 170 kts | 71° |
| 2026-05-05 16:39 | 22.30940 | 113.93850 | 981 ft | 171 kts | 73° |
| 2026-05-05 16:40 | 22.31309 | 113.95049 | 1780 ft | 164 kts | 74° |
| 2026-05-05 16:40 | 22.31667 | 113.96231 | 2161 ft | 172 kts | 75° |
| 2026-05-05 16:40 | 22.32023 | 113.97511 | 2422 ft | 183 kts | 77° |
| 2026-05-05 16:40 | 22.32252 | 113.98893 | 2728 ft | 190 kts | 94° |
| 2026-05-05 16:41 | 22.31815 | 114.00228 | 3075 ft | 194 kts | 129° |
| 2026-05-05 16:41 | 22.30871 | 114.01326 | 3390 ft | 205 kts | 134° |
| 2026-05-05 16:41 | 22.29883 | 114.02511 | 3666 ft | 219 kts | 132° |
| 2026-05-05 16:41 | 22.28825 | 114.03766 | 3871 ft | 234 kts | 134° |
| 2026-05-05 16:42 | 22.27662 | 114.05066 | 4070 ft | 247 kts | 136° |
| 2026-05-05 16:42 | 22.26411 | 114.06423 | 4268 ft | 262 kts | 136° |